createdAt,value
2023-03-20T00:01:01.225Z,7.13
2023-03-20T00:06:03.000Z,7.20
2023-03-20T00:11:04.793Z,5.43
2023-03-20T00:16:06.853Z,8.30
2023-03-20T00:21:18.918Z,7.00
2023-03-20T00:26:26.660Z,9.43
2023-03-20T00:31:31.453Z,5.55
2023-03-20T00:36:33.630Z,5.90
2023-03-20T00:41:38.226Z,3.35
2023-03-20T00:46:40.520Z,3.95
2023-03-20T00:51:42.503Z,4.70
2023-03-20T00:56:48.840Z,7.07
2023-03-20T01:01:51.176Z,4.00
2023-03-20T01:06:52.877Z,3.25
2023-03-20T01:11:54.536Z,3.40
2023-03-20T01:16:56.279Z,3.80
2023-03-20T01:21:57.948Z,6.82
2023-03-20T01:27:03.604Z,6.30
2023-03-20T01:32:12.039Z,5.25
2023-03-20T01:37:23.935Z,9.57
2023-03-20T01:42:26.362Z,5.00
2023-03-20T01:47:28.823Z,6.15
2023-03-20T01:52:34.488Z,3.63
2023-03-20T01:57:37.635Z,4.90
2023-03-20T02:02:40.994Z,4.18
2023-03-20T02:07:47.680Z,3.58
2023-03-20T02:12:51.815Z,8.45
2023-03-20T02:18:02.911Z,4.38
2023-03-20T02:23:10.823Z,5.93
2023-03-20T02:28:59.912Z,4.72
2023-03-20T02:34:37.118Z,5.45
2023-03-20T02:39:45.041Z,4.60
2023-03-20T02:45:01.898Z,5.18
2023-03-20T02:50:13.960Z,6.22
2023-03-20T02:55:31.836Z,3.95
2023-03-20T03:01:10.523Z,3.35
2023-03-20T03:06:23.088Z,3.53
2023-03-20T03:11:24.788Z,6.95
2023-03-20T03:16:34.115Z,4.97
2023-03-20T03:21:39.295Z,5.80
2023-03-20T03:26:42.361Z,2.88
2023-03-20T03:31:45.777Z,3.45
2023-03-20T03:37:00.003Z,9.15
2023-03-20T03:42:07.659Z,5.10
2023-03-20T03:47:21.575Z,2.88
2023-03-20T03:52:25.026Z,4.38
2023-03-20T03:57:36.598Z,4.68
2023-03-20T04:02:44.058Z,5.07
2023-03-20T04:07:47.070Z,4.28
2023-03-20T04:12:48.741Z,5.35
2023-03-20T04:17:50.371Z,5.18
2023-03-20T04:22:53.186Z,5.22
2023-03-20T04:27:55.853Z,6.13
2023-03-20T04:33:30.102Z,3.05
2023-03-20T04:38:39.473Z,3.53
2023-03-20T04:43:41.254Z,4.75
2023-03-20T04:48:43.335Z,5.25
2023-03-20T04:53:46.491Z,4.22
2023-03-20T04:58:48.415Z,6.03
2023-03-20T05:03:52.277Z,3.75
2023-03-20T05:08:55.025Z,3.95
2023-03-20T05:13:58.543Z,3.20
2023-03-20T05:19:11.254Z,5.47
2023-03-20T05:24:48.047Z,2.90
2023-03-20T05:30:13.510Z,3.35
2023-03-20T05:35:33.948Z,4.88
2023-03-20T05:40:58.573Z,2.85
2023-03-20T05:46:10.555Z,6.57
2023-03-20T05:51:29.118Z,4.22
2023-03-20T05:56:43.267Z,4.38
2023-03-20T06:02:05.757Z,3.85
2023-03-20T06:07:10.341Z,4.20
2023-03-20T06:12:13.928Z,4.15
2023-03-20T06:17:15.872Z,7.88
2023-03-20T06:22:22.106Z,5.22
2023-03-20T06:27:24.071Z,11.57
2023-03-20T06:32:25.925Z,4.72
2023-03-20T06:37:31.022Z,3.50
2023-03-20T06:42:41.328Z,4.72
2023-03-20T06:47:44.468Z,6.30
2023-03-20T06:52:46.624Z,5.50
2023-03-20T06:58:07.201Z,4.00
2023-03-20T07:03:11.707Z,6.07
2023-03-20T07:08:15.235Z,5.53
2023-03-20T07:13:16.926Z,5.40
2023-03-20T07:18:19.125Z,3.70
2023-03-20T07:23:21.413Z,8.20
2023-03-20T07:28:23.340Z,4.38
2023-03-20T07:33:34.653Z,4.00
2023-03-20T07:38:36.671Z,5.80
2023-03-20T07:43:44.845Z,7.30
2023-03-20T07:48:58.182Z,12.65
2023-03-20T07:54:00.090Z,8.07
2023-03-20T07:59:01.962Z,11.07
2023-03-20T08:04:05.455Z,5.88
2023-03-20T08:09:07.379Z,4.68
2023-03-20T08:14:09.112Z,9.38
2023-03-20T08:19:10.880Z,9.45
2023-03-20T08:24:12.695Z,5.00
2023-03-20T08:29:17.364Z,4.85
2023-03-20T08:34:19.067Z,5.70
2023-03-20T08:39:20.737Z,8.82
2023-03-20T08:44:22.363Z,8.00
2023-03-20T08:49:24.577Z,6.88
2023-03-20T08:54:27.586Z,7.80
2023-03-20T08:59:29.550Z,7.43
2023-03-20T09:04:31.354Z,12.05
2023-03-20T09:09:33.452Z,9.63
2023-03-20T09:14:36.471Z,17.13
2023-03-20T09:19:40.122Z,23.17
2023-03-20T09:24:41.862Z,25.30
2023-03-20T09:29:43.867Z,22.48
2023-03-20T09:34:45.477Z,19.23
2023-03-20T09:39:47.186Z,19.88
2023-03-20T09:45:11.512Z,16.02
2023-03-20T09:50:24.180Z,11.80
2023-03-20T09:55:33.053Z,14.05
2023-03-20T10:00:36.971Z,14.95
2023-03-20T10:05:44.989Z,16.10
2023-03-20T10:11:28.452Z,15.23
2023-03-20T10:16:51.552Z,21.42
2023-03-20T10:22:02.740Z,15.13
2023-03-20T10:27:18.454Z,18.75
2023-03-20T10:32:58.425Z,18.33
2023-03-20T10:38:06.197Z,17.83
2023-03-20T10:43:19.869Z,17.55
2023-03-20T10:48:27.393Z,26.70
2023-03-20T10:53:41.948Z,15.73
2023-03-20T10:58:47.236Z,17.50
2023-03-20T11:03:48.873Z,18.77
2023-03-20T11:08:52.728Z,19.13
2023-03-20T11:13:54.856Z,16.35
2023-03-20T11:18:56.814Z,17.25
2023-03-20T11:23:58.881Z,25.60
2023-03-20T11:29:00.717Z,35.13
2023-03-20T11:34:14.547Z,24.80
2023-03-20T11:39:23.394Z,25.25
2023-03-20T11:44:34.294Z,27.40
2023-03-20T11:49:47.969Z,22.58
2023-03-20T11:54:52.701Z,27.13
2023-03-20T11:59:56.251Z,28.30
2023-03-20T12:05:01.422Z,22.15
2023-03-20T12:10:08.671Z,18.58
2023-03-20T12:15:16.094Z,25.02
2023-03-20T12:20:27.550Z,25.27
2023-03-20T12:25:50.775Z,19.27
2023-03-20T12:30:58.971Z,16.63
2023-03-20T12:36:03.416Z,21.50
2023-03-20T12:41:20.572Z,24.05
2023-03-20T12:46:51.580Z,28.23
2023-03-20T12:52:20.983Z,26.50
2023-03-20T12:57:45.571Z,19.55
2023-03-20T13:03:19.763Z,20.52
2023-03-20T13:08:59.051Z,22.35
2023-03-20T13:14:06.133Z,21.20
2023-03-20T13:19:19.780Z,19.67
2023-03-20T13:24:29.552Z,22.35
2023-03-20T13:30:03.484Z,15.90
2023-03-20T13:35:29.453Z,22.30
2023-03-20T13:40:38.556Z,22.98
2023-03-20T13:45:42.546Z,31.42
2023-03-20T13:51:05.460Z,27.50
2023-03-20T13:56:25.644Z,30.00
2023-03-20T14:01:45.843Z,29.52
2023-03-20T14:06:56.894Z,32.45
2023-03-20T14:12:03.555Z,31.08
2023-03-20T14:17:15.359Z,32.63
2023-03-20T14:22:23.609Z,34.28
2023-03-20T14:27:45.129Z,38.28
2023-03-20T14:32:57.891Z,32.20
2023-03-20T14:38:23.729Z,11.50
2023-03-20T14:43:48.421Z,28.60
2023-03-20T14:48:54.115Z,24.30
2023-03-20T14:53:57.966Z,27.15
2023-03-20T14:59:04.306Z,19.70
2023-03-20T15:04:20.929Z,12.38
2023-03-20T15:09:25.318Z,13.75
2023-03-20T15:14:30.038Z,7.85
2023-03-20T15:19:33.623Z,9.80
2023-03-20T15:24:35.349Z,9.07
2023-03-20T15:29:36.977Z,8.10
2023-03-20T15:34:41.116Z,7.30
2023-03-20T15:39:45.772Z,6.53
2023-03-20T15:44:50.139Z,6.55
2023-03-20T15:49:56.042Z,7.95
2023-03-20T15:54:59.901Z,8.40
2023-03-20T16:00:02.911Z,9.65
2023-03-20T16:05:15.666Z,9.70
2023-03-20T16:10:35.110Z,10.50
2023-03-20T16:15:36.957Z,10.32
2023-03-20T16:20:42.227Z,11.00
2023-03-20T16:25:43.854Z,10.75
2023-03-20T16:30:45.705Z,10.60
2023-03-20T16:35:51.037Z,10.50
2023-03-20T16:41:25.149Z,7.55
2023-03-20T16:46:28.683Z,8.18
2023-03-20T16:51:31.516Z,8.35
2023-03-20T16:56:40.560Z,8.52
2023-03-20T17:01:45.102Z,9.43
2023-03-20T17:06:54.015Z,7.80
2023-03-20T17:12:18.419Z,11.02
2023-03-20T17:17:22.270Z,10.18
2023-03-20T17:22:25.777Z,6.85
2023-03-20T17:27:29.248Z,7.97
2023-03-20T17:32:30.946Z,7.35
2023-03-20T17:37:32.622Z,7.97
2023-03-20T17:42:34.328Z,8.88
2023-03-20T17:47:36.296Z,9.02
2023-03-20T17:52:37.934Z,7.90
2023-03-20T17:57:40.361Z,13.15
2023-03-20T18:02:41.993Z,10.38
2023-03-20T18:07:44.399Z,8.77
2023-03-20T18:12:46.068Z,13.60
2023-03-20T18:17:47.682Z,7.32
2023-03-20T18:22:50.914Z,8.95
2023-03-20T18:27:53.661Z,8.88
2023-03-20T18:32:55.441Z,9.57
2023-03-20T18:37:58.197Z,13.60
2023-03-20T18:43:00.388Z,10.98
2023-03-20T18:48:03.942Z,14.32
2023-03-20T18:53:07.062Z,12.88
2023-03-20T18:58:21.195Z,10.15
2023-03-20T19:03:24.532Z,13.10
2023-03-20T19:08:26.240Z,11.18
2023-03-20T19:13:27.930Z,10.25
2023-03-20T19:18:29.578Z,9.98
2023-03-20T19:23:31.735Z,14.18
2023-03-20T19:28:41.660Z,12.85
2023-03-20T19:33:43.434Z,13.40
2023-03-20T19:38:45.362Z,12.48
2023-03-20T19:43:53.046Z,14.10
2023-03-20T19:48:57.798Z,15.68
2023-03-20T19:53:59.549Z,15.13
2023-03-20T19:59:01.600Z,22.63
2023-03-20T20:04:04.155Z,21.95
2023-03-20T20:09:05.862Z,18.27
2023-03-20T20:14:09.798Z,18.55
2023-03-20T20:19:12.094Z,19.08
2023-03-20T20:24:16.060Z,18.98
2023-03-20T20:29:18.989Z,19.25
2023-03-20T20:39:43.697Z,21.13
2023-03-20T20:44:45.378Z,21.55
2023-03-20T20:49:47.584Z,21.50
2023-03-20T20:54:49.381Z,24.58
2023-03-20T20:59:54.178Z,19.38
2023-03-20T21:04:56.097Z,23.83
2023-03-20T21:09:57.702Z,21.02
2023-03-20T21:14:59.490Z,20.17
2023-03-20T21:20:01.135Z,18.17
2023-03-20T21:25:14.231Z,17.05
2023-03-20T21:30:18.723Z,20.67
2023-03-20T21:35:20.566Z,23.65
2023-03-20T21:40:22.448Z,18.92
2023-03-20T21:46:18.802Z,14.88
2023-03-20T21:51:18.823Z,15.40
2023-03-20T21:57:07.952Z,16.70
2023-03-20T22:01:58.740Z,15.57
2023-03-20T22:13:14.285Z,16.75
2023-03-20T22:18:12.283Z,18.50
2023-03-20T22:29:17.642Z,14.15
2023-03-20T22:49:45.259Z,19.42
2023-03-20T22:54:46.865Z,19.67
2023-03-20T22:59:48.463Z,18.52
2023-03-20T23:04:52.006Z,17.75
2023-03-20T23:09:53.661Z,18.77
2023-03-20T23:14:55.594Z,19.08
2023-03-20T23:20:10.448Z,19.20
2023-03-20T23:25:21.060Z,15.65
2023-03-20T23:30:37.891Z,16.15
2023-03-20T23:35:43.530Z,17.20
2023-03-20T23:40:49.168Z,15.38
2023-03-20T23:45:51.026Z,16.55
2023-03-20T23:50:53.741Z,18.33
2023-03-20T23:55:57.309Z,17.83
